sensor_id;sensor_type;location;lat;lon;timestamp;P1;durP1;ratioP1;P2;durP2;ratioP2
82948;SDS011;72736;50.236;18.876;2023-11-21T00:04:28;13.60;;;6.00;;
82948;SDS011;72736;50.236;18.876;2023-11-21T00:09:34;13.90;;;6.70;;
82948;SDS011;72736;50.236;18.876;2023-11-21T00:14:40;16.60;;;7.70;;
82948;SDS011;72736;50.236;18.876;2023-11-21T00:19:46;14.50;;;7.10;;
82948;SDS011;72736;50.236;18.876;2023-11-21T00:24:52;16.30;;;7.40;;
82948;SDS011;72736;50.236;18.876;2023-11-21T00:29:58;18.60;;;8.70;;
82948;SDS011;72736;50.236;18.876;2023-11-21T00:35:04;21.50;;;9.80;;
82948;SDS011;72736;50.236;18.876;2023-11-21T00:40:11;23.30;;;11.80;;
82948;SDS011;72736;50.236;18.876;2023-11-21T00:45:18;21.90;;;10.70;;
82948;SDS011;72736;50.236;18.876;2023-11-21T00:50:24;19.10;;;9.70;;
82948;SDS011;72736;50.236;18.876;2023-11-21T00:55:30;14.20;;;8.00;;
82948;SDS011;72736;50.236;18.876;2023-11-21T01:00:36;26.60;;;9.50;;
82948;SDS011;72736;50.236;18.876;2023-11-21T01:05:43;13.90;;;6.30;;
82948;SDS011;72736;50.236;18.876;2023-11-21T01:10:49;10.40;;;4.80;;
82948;SDS011;72736;50.236;18.876;2023-11-21T01:15:55;8.60;;;4.20;;
82948;SDS011;72736;50.236;18.876;2023-11-21T01:21:01;9.70;;;4.40;;
82948;SDS011;72736;50.236;18.876;2023-11-21T01:26:07;9.50;;;4.10;;
82948;SDS011;72736;50.236;18.876;2023-11-21T01:31:12;10.70;;;5.10;;
82948;SDS011;72736;50.236;18.876;2023-11-21T01:36:18;13.90;;;6.10;;
82948;SDS011;72736;50.236;18.876;2023-11-21T01:41:25;8.50;;;5.10;;
82948;SDS011;72736;50.236;18.876;2023-11-21T01:46:31;9.70;;;4.50;;
82948;SDS011;72736;50.236;18.876;2023-11-21T01:51:37;13.70;;;5.10;;
82948;SDS011;72736;50.236;18.876;2023-11-21T01:56:45;9.20;;;4.50;;
82948;SDS011;72736;50.236;18.876;2023-11-21T02:01:51;8.80;;;4.20;;
82948;SDS011;72736;50.236;18.876;2023-11-21T02:06:59;11.40;;;4.60;;
82948;SDS011;72736;50.236;18.876;2023-11-21T02:12:05;9.40;;;4.00;;
82948;SDS011;72736;50.236;18.876;2023-11-21T02:17:13;9.20;;;4.10;;
82948;SDS011;72736;50.236;18.876;2023-11-21T02:22:21;7.70;;;4.40;;
82948;SDS011;72736;50.236;18.876;2023-11-21T02:27:29;8.60;;;4.80;;
82948;SDS011;72736;50.236;18.876;2023-11-21T02:32:35;9.80;;;4.80;;
82948;SDS011;72736;50.236;18.876;2023-11-21T02:37:51;10.20;;;4.50;;
82948;SDS011;72736;50.236;18.876;2023-11-21T02:42:58;9.50;;;5.60;;
82948;SDS011;72736;50.236;18.876;2023-11-21T02:48:04;11.10;;;5.80;;
82948;SDS011;72736;50.236;18.876;2023-11-21T02:58:15;9.10;;;4.20;;
82948;SDS011;72736;50.236;18.876;2023-11-21T03:03:21;10.80;;;4.70;;
82948;SDS011;72736;50.236;18.876;2023-11-21T03:08:28;12.20;;;5.00;;
82948;SDS011;72736;50.236;18.876;2023-11-21T03:13:35;14.20;;;5.10;;
82948;SDS011;72736;50.236;18.876;2023-11-21T03:18:40;9.00;;;5.10;;
82948;SDS011;72736;50.236;18.876;2023-11-21T03:23:47;12.20;;;4.80;;
82948;SDS011;72736;50.236;18.876;2023-11-21T03:28:53;11.00;;;5.00;;
82948;SDS011;72736;50.236;18.876;2023-11-21T03:33:59;11.30;;;5.10;;
82948;SDS011;72736;50.236;18.876;2023-11-21T03:39:05;11.40;;;5.90;;
82948;SDS011;72736;50.236;18.876;2023-11-21T03:44:11;14.90;;;6.60;;
82948;SDS011;72736;50.236;18.876;2023-11-21T03:49:17;13.00;;;5.70;;
82948;SDS011;72736;50.236;18.876;2023-11-21T03:54:25;12.50;;;5.30;;
82948;SDS011;72736;50.236;18.876;2023-11-21T03:59:31;14.70;;;6.80;;
82948;SDS011;72736;50.236;18.876;2023-11-21T04:04:37;20.30;;;8.30;;
82948;SDS011;72736;50.236;18.876;2023-11-21T04:09:43;23.80;;;8.30;;
82948;SDS011;72736;50.236;18.876;2023-11-21T04:14:49;16.20;;;6.40;;
82948;SDS011;72736;50.236;18.876;2023-11-21T04:19:57;17.30;;;7.70;;
82948;SDS011;72736;50.236;18.876;2023-11-21T04:25:04;20.80;;;8.40;;
82948;SDS011;72736;50.236;18.876;2023-11-21T04:30:10;17.00;;;8.50;;
82948;SDS011;72736;50.236;18.876;2023-11-21T04:35:18;20.30;;;8.40;;
82948;SDS011;72736;50.236;18.876;2023-11-21T04:40:23;19.90;;;8.40;;
82948;SDS011;72736;50.236;18.876;2023-11-21T04:45:30;18.70;;;9.10;;
82948;SDS011;72736;50.236;18.876;2023-11-21T04:50:35;19.70;;;9.10;;
82948;SDS011;72736;50.236;18.876;2023-11-21T04:55:41;19.90;;;9.70;;
82948;SDS011;72736;50.236;18.876;2023-11-21T05:00:48;16.00;;;8.80;;
82948;SDS011;72736;50.236;18.876;2023-11-21T05:05:55;17.00;;;7.90;;
82948;SDS011;72736;50.236;18.876;2023-11-21T05:11:00;20.50;;;9.50;;
82948;SDS011;72736;50.236;18.876;2023-11-21T05:21:11;12.70;;;7.70;;
82948;SDS011;72736;50.236;18.876;2023-11-21T05:26:18;16.80;;;8.00;;
82948;SDS011;72736;50.236;18.876;2023-11-21T05:31:23;16.40;;;8.80;;
82948;SDS011;72736;50.236;18.876;2023-11-21T05:36:29;17.00;;;8.00;;
82948;SDS011;72736;50.236;18.876;2023-11-21T05:41:36;19.70;;;9.00;;
82948;SDS011;72736;50.236;18.876;2023-11-21T05:46:42;16.50;;;8.40;;
82948;SDS011;72736;50.236;18.876;2023-11-21T05:51:48;15.10;;;7.60;;
82948;SDS011;72736;50.236;18.876;2023-11-21T05:56:56;19.20;;;10.00;;
82948;SDS011;72736;50.236;18.876;2023-11-21T06:02:03;17.90;;;8.40;;
82948;SDS011;72736;50.236;18.876;2023-11-21T06:07:11;16.90;;;8.80;;
82948;SDS011;72736;50.236;18.876;2023-11-21T06:12:17;18.30;;;9.00;;
82948;SDS011;72736;50.236;18.876;2023-11-21T06:17:24;18.50;;;9.50;;
82948;SDS011;72736;50.236;18.876;2023-11-21T06:22:30;22.10;;;10.10;;
82948;SDS011;72736;50.236;18.876;2023-11-21T06:27:38;18.80;;;9.80;;
82948;SDS011;72736;50.236;18.876;2023-11-21T06:32:44;20.30;;;10.20;;
82948;SDS011;72736;50.236;18.876;2023-11-21T06:37:50;20.00;;;10.20;;
82948;SDS011;72736;50.236;18.876;2023-11-21T06:42:56;23.00;;;11.20;;
82948;SDS011;72736;50.236;18.876;2023-11-21T06:48:03;20.60;;;12.00;;
82948;SDS011;72736;50.236;18.876;2023-11-21T06:53:09;24.60;;;13.10;;
82948;SDS011;72736;50.236;18.876;2023-11-21T06:58:16;25.80;;;13.50;;
82948;SDS011;72736;50.236;18.876;2023-11-21T07:03:22;30.60;;;15.20;;
82948;SDS011;72736;50.236;18.876;2023-11-21T07:08:29;29.60;;;15.50;;
82948;SDS011;72736;50.236;18.876;2023-11-21T07:13:35;33.10;;;16.40;;
82948;SDS011;72736;50.236;18.876;2023-11-21T07:18:41;27.90;;;14.10;;
82948;SDS011;72736;50.236;18.876;2023-11-21T07:23:46;21.40;;;11.30;;
82948;SDS011;72736;50.236;18.876;2023-11-21T07:28:52;20.80;;;11.10;;
82948;SDS011;72736;50.236;18.876;2023-11-21T07:33:58;22.70;;;12.10;;
82948;SDS011;72736;50.236;18.876;2023-11-21T07:39:04;41.70;;;20.60;;
82948;SDS011;72736;50.236;18.876;2023-11-21T07:44:10;30.30;;;13.60;;
82948;SDS011;72736;50.236;18.876;2023-11-21T07:49:16;23.40;;;11.70;;
82948;SDS011;72736;50.236;18.876;2023-11-21T07:54:24;20.10;;;10.20;;
82948;SDS011;72736;50.236;18.876;2023-11-21T07:59:30;17.30;;;10.50;;
82948;SDS011;72736;50.236;18.876;2023-11-21T08:04:36;23.30;;;11.00;;
82948;SDS011;72736;50.236;18.876;2023-11-21T08:09:42;24.30;;;12.70;;
82948;SDS011;72736;50.236;18.876;2023-11-21T08:14:49;23.80;;;13.10;;
82948;SDS011;72736;50.236;18.876;2023-11-21T08:19:55;25.70;;;13.10;;
82948;SDS011;72736;50.236;18.876;2023-11-21T08:25:01;24.20;;;13.30;;
82948;SDS011;72736;50.236;18.876;2023-11-21T08:30:08;23.60;;;12.70;;
82948;SDS011;72736;50.236;18.876;2023-11-21T08:35:16;23.60;;;12.00;;
82948;SDS011;72736;50.236;18.876;2023-11-21T08:40:23;25.00;;;13.00;;
82948;SDS011;72736;50.236;18.876;2023-11-21T08:45:29;29.40;;;13.30;;
82948;SDS011;72736;50.236;18.876;2023-11-21T08:50:37;23.70;;;12.20;;
82948;SDS011;72736;50.236;18.876;2023-11-21T08:55:44;24.20;;;11.90;;
82948;SDS011;72736;50.236;18.876;2023-11-21T09:00:50;19.80;;;10.70;;
82948;SDS011;72736;50.236;18.876;2023-11-21T09:05:55;20.00;;;10.60;;
82948;SDS011;72736;50.236;18.876;2023-11-21T09:11:01;23.50;;;10.90;;
82948;SDS011;72736;50.236;18.876;2023-11-21T09:16:07;23.70;;;11.60;;
82948;SDS011;72736;50.236;18.876;2023-11-21T09:21:13;22.90;;;10.60;;
82948;SDS011;72736;50.236;18.876;2023-11-21T09:26:19;19.20;;;9.40;;
82948;SDS011;72736;50.236;18.876;2023-11-21T09:31:25;21.50;;;9.80;;
82948;SDS011;72736;50.236;18.876;2023-11-21T09:41:40;11.10;;;6.70;;
82948;SDS011;72736;50.236;18.876;2023-11-21T09:46:52;15.50;;;6.80;;
82948;SDS011;72736;50.236;18.876;2023-11-21T09:52:00;11.10;;;6.30;;
82948;SDS011;72736;50.236;18.876;2023-11-21T09:57:08;13.20;;;6.20;;
82948;SDS011;72736;50.236;18.876;2023-11-21T10:02:17;11.70;;;5.90;;
82948;SDS011;72736;50.236;18.876;2023-11-21T10:07:23;12.10;;;5.50;;
82948;SDS011;72736;50.236;18.876;2023-11-21T10:12:30;10.40;;;5.30;;
82948;SDS011;72736;50.236;18.876;2023-11-21T10:17:37;8.80;;;5.20;;
82948;SDS011;72736;50.236;18.876;2023-11-21T10:22:46;9.40;;;5.60;;
82948;SDS011;72736;50.236;18.876;2023-11-21T10:27:56;10.50;;;5.60;;
82948;SDS011;72736;50.236;18.876;2023-11-21T10:38:11;20.50;;;11.30;;
82948;SDS011;72736;50.236;18.876;2023-11-21T10:43:18;15.10;;;8.70;;
82948;SDS011;72736;50.236;18.876;2023-11-21T10:48:24;16.70;;;7.50;;
82948;SDS011;72736;50.236;18.876;2023-11-21T10:53:31;12.30;;;6.00;;
82948;SDS011;72736;50.236;18.876;2023-11-21T11:03:43;6.90;;;3.60;;
82948;SDS011;72736;50.236;18.876;2023-11-21T11:08:50;6.90;;;3.60;;
82948;SDS011;72736;50.236;18.876;2023-11-21T11:13:57;11.40;;;4.40;;
82948;SDS011;72736;50.236;18.876;2023-11-21T11:19:06;11.60;;;3.90;;
82948;SDS011;72736;50.236;18.876;2023-11-21T11:24:16;11.50;;;3.90;;
82948;SDS011;72736;50.236;18.876;2023-11-21T11:29:39;7.30;;;3.20;;
82948;SDS011;72736;50.236;18.876;2023-11-21T11:34:53;7.60;;;2.30;;
82948;SDS011;72736;50.236;18.876;2023-11-21T11:40:07;7.40;;;2.70;;
82948;SDS011;72736;50.236;18.876;2023-11-21T11:45:20;7.00;;;1.90;;
82948;SDS011;72736;50.236;18.876;2023-11-21T11:50:27;6.20;;;2.70;;
82948;SDS011;72736;50.236;18.876;2023-11-21T11:55:33;5.80;;;2.30;;
82948;SDS011;72736;50.236;18.876;2023-11-21T12:00:40;6.00;;;2.30;;
82948;SDS011;72736;50.236;18.876;2023-11-21T12:05:51;5.20;;;2.00;;
82948;SDS011;72736;50.236;18.876;2023-11-21T12:11:03;7.20;;;2.40;;
82948;SDS011;72736;50.236;18.876;2023-11-21T12:16:09;5.00;;;2.00;;
82948;SDS011;72736;50.236;18.876;2023-11-21T12:21:15;7.50;;;2.50;;
82948;SDS011;72736;50.236;18.876;2023-11-21T12:26:23;9.50;;;2.70;;
82948;SDS011;72736;50.236;18.876;2023-11-21T12:31:31;7.20;;;2.90;;
82948;SDS011;72736;50.236;18.876;2023-11-21T12:36:37;7.60;;;2.80;;
82948;SDS011;72736;50.236;18.876;2023-11-21T12:41:43;8.10;;;2.90;;
82948;SDS011;72736;50.236;18.876;2023-11-21T12:46:49;7.70;;;2.70;;
82948;SDS011;72736;50.236;18.876;2023-11-21T12:51:56;8.40;;;3.00;;
82948;SDS011;72736;50.236;18.876;2023-11-21T12:57:02;10.50;;;2.90;;
82948;SDS011;72736;50.236;18.876;2023-11-21T13:02:12;8.60;;;3.40;;
82948;SDS011;72736;50.236;18.876;2023-11-21T13:07:18;10.20;;;3.70;;
82948;SDS011;72736;50.236;18.876;2023-11-21T13:12:25;10.40;;;3.50;;
82948;SDS011;72736;50.236;18.876;2023-11-21T13:17:31;8.60;;;3.60;;
82948;SDS011;72736;50.236;18.876;2023-11-21T13:22:37;15.50;;;4.80;;
82948;SDS011;72736;50.236;18.876;2023-11-21T13:27:43;12.80;;;4.10;;
82948;SDS011;72736;50.236;18.876;2023-11-21T13:32:49;11.40;;;4.40;;
82948;SDS011;72736;50.236;18.876;2023-11-21T13:37:55;12.50;;;5.40;;
82948;SDS011;72736;50.236;18.876;2023-11-21T13:43:02;11.20;;;4.30;;
82948;SDS011;72736;50.236;18.876;2023-11-21T13:48:13;12.40;;;5.30;;
82948;SDS011;72736;50.236;18.876;2023-11-21T13:53:28;16.80;;;6.90;;
82948;SDS011;72736;50.236;18.876;2023-11-21T13:58:34;10.90;;;5.90;;
82948;SDS011;72736;50.236;18.876;2023-11-21T14:03:47;9.90;;;4.70;;
82948;SDS011;72736;50.236;18.876;2023-11-21T14:08:59;9.00;;;5.20;;
82948;SDS011;72736;50.236;18.876;2023-11-21T14:14:08;12.20;;;5.30;;
82948;SDS011;72736;50.236;18.876;2023-11-21T14:19:14;10.70;;;5.70;;
82948;SDS011;72736;50.236;18.876;2023-11-21T14:24:20;14.10;;;6.20;;
82948;SDS011;72736;50.236;18.876;2023-11-21T14:29:26;15.30;;;6.60;;
82948;SDS011;72736;50.236;18.876;2023-11-21T14:39:37;16.00;;;7.80;;
82948;SDS011;72736;50.236;18.876;2023-11-21T14:44:47;17.20;;;8.00;;
82948;SDS011;72736;50.236;18.876;2023-11-21T14:49:54;18.30;;;8.20;;
82948;SDS011;72736;50.236;18.876;2023-11-21T14:55:04;21.10;;;10.10;;
82948;SDS011;72736;50.236;18.876;2023-11-21T15:00:34;22.60;;;10.90;;
82948;SDS011;72736;50.236;18.876;2023-11-21T15:05:48;19.30;;;10.40;;
82948;SDS011;72736;50.236;18.876;2023-11-21T15:10:53;21.00;;;9.40;;
82948;SDS011;72736;50.236;18.876;2023-11-21T15:15:59;18.00;;;9.80;;
82948;SDS011;72736;50.236;18.876;2023-11-21T15:21:10;20.40;;;10.70;;
82948;SDS011;72736;50.236;18.876;2023-11-21T15:26:16;21.80;;;11.10;;
82948;SDS011;72736;50.236;18.876;2023-11-21T15:31:22;23.40;;;11.50;;
82948;SDS011;72736;50.236;18.876;2023-11-21T15:36:28;25.60;;;13.00;;
82948;SDS011;72736;50.236;18.876;2023-11-21T15:41:33;34.50;;;17.30;;
82948;SDS011;72736;50.236;18.876;2023-11-21T15:46:40;32.20;;;16.90;;
82948;SDS011;72736;50.236;18.876;2023-11-21T15:51:46;36.20;;;16.50;;
82948;SDS011;72736;50.236;18.876;2023-11-21T15:56:58;27.20;;;14.50;;
82948;SDS011;72736;50.236;18.876;2023-11-21T16:02:07;34.90;;;18.80;;
82948;SDS011;72736;50.236;18.876;2023-11-21T16:07:15;34.40;;;20.00;;
82948;SDS011;72736;50.236;18.876;2023-11-21T16:12:21;36.60;;;19.00;;
82948;SDS011;72736;50.236;18.876;2023-11-21T16:17:26;40.30;;;21.70;;
82948;SDS011;72736;50.236;18.876;2023-11-21T16:27:38;36.60;;;21.00;;
82948;SDS011;72736;50.236;18.876;2023-11-21T16:32:45;38.90;;;23.20;;
82948;SDS011;72736;50.236;18.876;2023-11-21T16:37:51;46.60;;;27.50;;
82948;SDS011;72736;50.236;18.876;2023-11-21T16:42:57;46.40;;;27.80;;
82948;SDS011;72736;50.236;18.876;2023-11-21T16:48:03;40.80;;;23.10;;
82948;SDS011;72736;50.236;18.876;2023-11-21T16:53:12;48.60;;;25.70;;
82948;SDS011;72736;50.236;18.876;2023-11-21T17:03:22;54.40;;;25.60;;
82948;SDS011;72736;50.236;18.876;2023-11-21T17:08:29;76.10;;;28.40;;
82948;SDS011;72736;50.236;18.876;2023-11-21T17:13:35;105.40;;;35.30;;
82948;SDS011;72736;50.236;18.876;2023-11-21T17:18:41;142.10;;;44.90;;
82948;SDS011;72736;50.236;18.876;2023-11-21T17:23:46;170.60;;;49.70;;
82948;SDS011;72736;50.236;18.876;2023-11-21T17:28:52;62.00;;;25.30;;
82948;SDS011;72736;50.236;18.876;2023-11-21T17:34:00;54.50;;;22.40;;
82948;SDS011;72736;50.236;18.876;2023-11-21T17:39:05;93.50;;;32.70;;
82948;SDS011;72736;50.236;18.876;2023-11-21T17:44:13;64.10;;;26.50;;
82948;SDS011;72736;50.236;18.876;2023-11-21T17:49:19;48.80;;;21.20;;
82948;SDS011;72736;50.236;18.876;2023-11-21T17:54:26;45.70;;;18.10;;
82948;SDS011;72736;50.236;18.876;2023-11-21T17:59:32;55.10;;;22.50;;
82948;SDS011;72736;50.236;18.876;2023-11-21T18:09:42;31.30;;;14.30;;
82948;SDS011;72736;50.236;18.876;2023-11-21T18:14:48;29.80;;;14.40;;
82948;SDS011;72736;50.236;18.876;2023-11-21T18:24:59;13.10;;;6.70;;
82948;SDS011;72736;50.236;18.876;2023-11-21T18:35:11;15.40;;;7.70;;
82948;SDS011;72736;50.236;18.876;2023-11-21T18:40:17;17.80;;;8.20;;
82948;SDS011;72736;50.236;18.876;2023-11-21T18:45:24;42.20;;;16.10;;
82948;SDS011;72736;50.236;18.876;2023-11-21T18:50:29;32.60;;;14.70;;
82948;SDS011;72736;50.236;18.876;2023-11-21T18:55:36;19.10;;;9.20;;
82948;SDS011;72736;50.236;18.876;2023-11-21T19:00:45;28.10;;;12.00;;
82948;SDS011;72736;50.236;18.876;2023-11-21T19:05:51;23.30;;;8.90;;
82948;SDS011;72736;50.236;18.876;2023-11-21T19:10:57;26.10;;;10.80;;
82948;SDS011;72736;50.236;18.876;2023-11-21T19:16:03;19.40;;;10.40;;
82948;SDS011;72736;50.236;18.876;2023-11-21T19:21:13;14.30;;;7.30;;
82948;SDS011;72736;50.236;18.876;2023-11-21T19:26:19;16.10;;;11.10;;
82948;SDS011;72736;50.236;18.876;2023-11-21T19:31:25;19.60;;;11.60;;
82948;SDS011;72736;50.236;18.876;2023-11-21T19:36:30;16.00;;;9.20;;
82948;SDS011;72736;50.236;18.876;2023-11-21T19:41:37;15.10;;;7.00;;
82948;SDS011;72736;50.236;18.876;2023-11-21T19:46:46;24.60;;;9.90;;
82948;SDS011;72736;50.236;18.876;2023-11-21T19:51:52;28.40;;;13.10;;
82948;SDS011;72736;50.236;18.876;2023-11-21T19:57:04;13.50;;;6.80;;
82948;SDS011;72736;50.236;18.876;2023-11-21T20:02:10;15.10;;;6.90;;
82948;SDS011;72736;50.236;18.876;2023-11-21T20:07:16;11.20;;;6.20;;
82948;SDS011;72736;50.236;18.876;2023-11-21T20:12:24;11.70;;;6.00;;
82948;SDS011;72736;50.236;18.876;2023-11-21T20:17:31;19.90;;;8.50;;
82948;SDS011;72736;50.236;18.876;2023-11-21T20:22:40;16.50;;;7.50;;
82948;SDS011;72736;50.236;18.876;2023-11-21T20:27:48;18.70;;;9.40;;
82948;SDS011;72736;50.236;18.876;2023-11-21T20:32:54;16.80;;;7.90;;
82948;SDS011;72736;50.236;18.876;2023-11-21T20:38:02;18.90;;;11.70;;
82948;SDS011;72736;50.236;18.876;2023-11-21T20:43:08;9.60;;;5.20;;
82948;SDS011;72736;50.236;18.876;2023-11-21T20:48:14;13.50;;;6.20;;
82948;SDS011;72736;50.236;18.876;2023-11-21T20:53:22;12.60;;;6.00;;
82948;SDS011;72736;50.236;18.876;2023-11-21T20:58:29;14.10;;;6.90;;
82948;SDS011;72736;50.236;18.876;2023-11-21T21:03:35;10.60;;;4.80;;
82948;SDS011;72736;50.236;18.876;2023-11-21T21:08:40;10.30;;;4.60;;
82948;SDS011;72736;50.236;18.876;2023-11-21T21:13:46;10.00;;;5.50;;
82948;SDS011;72736;50.236;18.876;2023-11-21T21:18:56;10.20;;;5.00;;
82948;SDS011;72736;50.236;18.876;2023-11-21T21:24:03;12.70;;;5.80;;
82948;SDS011;72736;50.236;18.876;2023-11-21T21:29:09;10.30;;;5.80;;
82948;SDS011;72736;50.236;18.876;2023-11-21T21:34:15;8.10;;;4.90;;
82948;SDS011;72736;50.236;18.876;2023-11-21T21:39:21;10.20;;;5.30;;
82948;SDS011;72736;50.236;18.876;2023-11-21T21:44:27;14.60;;;7.00;;
82948;SDS011;72736;50.236;18.876;2023-11-21T21:49:33;14.70;;;8.40;;
82948;SDS011;72736;50.236;18.876;2023-11-21T21:54:40;14.90;;;9.50;;
82948;SDS011;72736;50.236;18.876;2023-11-21T21:59:46;13.10;;;6.60;;
82948;SDS011;72736;50.236;18.876;2023-11-21T22:04:52;13.50;;;7.70;;
82948;SDS011;72736;50.236;18.876;2023-11-21T22:09:58;22.10;;;9.20;;
82948;SDS011;72736;50.236;18.876;2023-11-21T22:15:05;13.50;;;7.00;;
82948;SDS011;72736;50.236;18.876;2023-11-21T22:20:12;13.90;;;6.20;;
82948;SDS011;72736;50.236;18.876;2023-11-21T22:25:18;15.80;;;8.60;;
82948;SDS011;72736;50.236;18.876;2023-11-21T22:30:24;18.10;;;10.00;;
82948;SDS011;72736;50.236;18.876;2023-11-21T22:35:30;17.00;;;8.90;;
82948;SDS011;72736;50.236;18.876;2023-11-21T22:40:37;16.30;;;8.80;;
82948;SDS011;72736;50.236;18.876;2023-11-21T22:45:43;20.00;;;10.30;;
82948;SDS011;72736;50.236;18.876;2023-11-21T22:50:49;20.20;;;9.20;;
82948;SDS011;72736;50.236;18.876;2023-11-21T22:55:55;20.60;;;8.90;;
82948;SDS011;72736;50.236;18.876;2023-11-21T23:01:01;17.10;;;8.00;;
82948;SDS011;72736;50.236;18.876;2023-11-21T23:06:08;17.70;;;8.40;;
82948;SDS011;72736;50.236;18.876;2023-11-21T23:11:15;19.20;;;8.40;;
82948;SDS011;72736;50.236;18.876;2023-11-21T23:16:21;15.30;;;7.60;;
82948;SDS011;72736;50.236;18.876;2023-11-21T23:21:27;17.70;;;8.10;;
82948;SDS011;72736;50.236;18.876;2023-11-21T23:26:35;15.10;;;6.70;;
82948;SDS011;72736;50.236;18.876;2023-11-21T23:31:42;27.30;;;10.80;;
82948;SDS011;72736;50.236;18.876;2023-11-21T23:36:48;21.90;;;10.10;;
82948;SDS011;72736;50.236;18.876;2023-11-21T23:41:54;21.30;;;9.90;;
82948;SDS011;72736;50.236;18.876;2023-11-21T23:47:00;24.80;;;10.70;;
82948;SDS011;72736;50.236;18.876;2023-11-21T23:52:07;24.60;;;9.80;;
82948;SDS011;72736;50.236;18.876;2023-11-21T23:57:13;20.70;;;9.30;;
